sensor_id;sensor_type;location;lat;lon;timestamp;pressure;altitude;pressure_sealevel;temperature;humidity
42003;BME280;27693;50.506;30.832;2023-07-31T00:00:19;99077.56;;;19.70;100.00
42003;BME280;27693;50.506;30.832;2023-07-31T00:01:23;99076.44;;;19.72;100.00
42003;BME280;27693;50.506;30.832;2023-07-31T00:02:26;99073.06;;;19.80;100.00
42003;BME280;27693;50.506;30.832;2023-07-31T00:03:28;99072.50;;;19.86;100.00
42003;BME280;27693;50.506;30.832;2023-07-31T00:04:30;99074.94;;;19.98;100.00
42003;BME280;27693;50.506;30.832;2023-07-31T00:05:33;99075.20;;;20.04;100.00
42003;BME280;27693;50.506;30.832;2023-07-31T00:06:36;99076.61;;;19.99;99.45
42003;BME280;27693;50.506;30.832;2023-07-31T00:07:40;99074.28;;;19.95;98.97
42003;BME280;27693;50.506;30.832;2023-07-31T00:08:43;99070.84;;;19.85;99.15
42003;BME280;27693;50.506;30.832;2023-07-31T00:09:45;99069.45;;;19.81;99.48
42003;BME280;27693;50.506;30.832;2023-07-31T00:10:51;99076.67;;;19.79;99.54
42003;BME280;27693;50.506;30.832;2023-07-31T00:11:55;99064.91;;;19.73;99.71
42003;BME280;27693;50.506;30.832;2023-07-31T00:12:57;99064.91;;;19.73;99.99
42003;BME280;27693;50.506;30.832;2023-07-31T00:14:00;99057.12;;;19.72;100.00
42003;BME280;27693;50.506;30.832;2023-07-31T00:15:03;99059.76;;;19.72;100.00
42003;BME280;27693;50.506;30.832;2023-07-31T00:16:06;99056.45;;;19.70;100.00
42003;BME280;27693;50.506;30.832;2023-07-31T00:17:09;99057.00;;;19.73;100.00
42003;BME280;27693;50.506;30.832;2023-07-31T00:18:13;99059.87;;;19.80;100.00
42003;BME280;27693;50.506;30.832;2023-07-31T00:19:16;99058.05;;;19.80;100.00
42003;BME280;27693;50.506;30.832;2023-07-31T00:20:19;99057.23;;;19.80;100.00
42003;BME280;27693;50.506;30.832;2023-07-31T00:21:21;99054.59;;;19.80;100.00
42003;BME280;27693;50.506;30.832;2023-07-31T00:22:23;99058.05;;;19.80;100.00
42003;BME280;27693;50.506;30.832;2023-07-31T00:23:26;99047.48;;;19.80;100.00
42003;BME280;27693;50.506;30.832;2023-07-31T00:24:28;99053.05;;;19.87;99.86
42003;BME280;27693;50.506;30.832;2023-07-31T00:25:30;99057.52;;;19.87;99.52
42003;BME280;27693;50.506;30.832;2023-07-31T00:26:32;99056.77;;;19.94;99.43
42003;BME280;27693;50.506;30.832;2023-07-31T00:27:36;99055.80;;;19.95;98.88
42003;BME280;27693;50.506;30.832;2023-07-31T00:28:39;99052.91;;;19.89;98.78
42003;BME280;27693;50.506;30.832;2023-07-31T00:29:42;99057.52;;;19.87;98.67
42003;BME280;27693;50.506;30.832;2023-07-31T00:30:44;99048.47;;;19.89;98.89
42003;BME280;27693;50.506;30.832;2023-07-31T00:31:47;99057.64;;;19.85;98.58
42003;BME280;27693;50.506;30.832;2023-07-31T00:32:49;99058.94;;;19.71;99.21
42003;BME280;27693;50.506;30.832;2023-07-31T00:33:53;99056.88;;;19.65;99.80
42003;BME280;27693;50.506;30.832;2023-07-31T00:34:55;99058.67;;;19.64;100.00
42003;BME280;27693;50.506;30.832;2023-07-31T00:35:59;99058.67;;;19.64;100.00
42003;BME280;27693;50.506;30.832;2023-07-31T00:37:01;99060.34;;;19.66;99.86
42003;BME280;27693;50.506;30.832;2023-07-31T00:38:03;99057.70;;;19.66;99.85
42003;BME280;27693;50.506;30.832;2023-07-31T00:39:06;99062.70;;;19.69;99.74
42003;BME280;27693;50.506;30.832;2023-07-31T00:40:09;99055.91;;;19.66;100.00
42003;BME280;27693;50.506;30.832;2023-07-31T00:41:12;99056.03;;;19.64;100.00
42003;BME280;27693;50.506;30.832;2023-07-31T00:42:14;99055.91;;;19.66;100.00
42003;BME280;27693;50.506;30.832;2023-07-31T00:43:16;99051.73;;;19.63;100.00
42003;BME280;27693;50.506;30.832;2023-07-31T00:44:19;99051.84;;;19.72;100.00
42003;BME280;27693;50.506;30.832;2023-07-31T00:45:22;99055.64;;;19.59;100.00
42003;BME280;27693;50.506;30.832;2023-07-31T00:46:26;99053.83;;;19.60;100.00
42003;BME280;27693;50.506;30.832;2023-07-31T00:47:29;99049.01;;;19.55;100.00
42003;BME280;27693;50.506;30.832;2023-07-31T00:48:32;99045.89;;;19.32;100.00
42003;BME280;27693;50.506;30.832;2023-07-31T00:49:34;99054.25;;;19.18;100.00
42003;BME280;27693;50.506;30.832;2023-07-31T00:50:37;99045.49;;;19.17;100.00
42003;BME280;27693;50.506;30.832;2023-07-31T00:51:41;99048.13;;;19.17;100.00
42003;BME280;27693;50.506;30.832;2023-07-31T00:52:43;99046.89;;;19.21;100.00
42003;BME280;27693;50.506;30.832;2023-07-31T00:53:47;99042.33;;;19.04;100.00
42003;BME280;27693;50.506;30.832;2023-07-31T00:54:50;99037.05;;;19.04;100.00
42003;BME280;27693;50.506;30.832;2023-07-31T00:55:53;99041.11;;;18.98;100.00
42003;BME280;27693;50.506;30.832;2023-07-31T00:56:56;99039.95;;;18.81;100.00
42003;BME280;27693;50.506;30.832;2023-07-31T00:57:59;99049.53;;;18.82;100.00
42003;BME280;27693;50.506;30.832;2023-07-31T00:59:03;99045.11;;;18.82;100.00
42003;BME280;27693;50.506;30.832;2023-07-31T01:00:09;99048.01;;;18.79;100.00
42003;BME280;27693;50.506;30.832;2023-07-31T01:01:11;99046.48;;;18.77;100.00
42003;BME280;27693;50.506;30.832;2023-07-31T01:02:14;99043.16;;;18.75;100.00
42003;BME280;27693;50.506;30.832;2023-07-31T01:03:18;99049.53;;;18.72;100.00
42003;BME280;27693;50.506;30.832;2023-07-31T01:04:21;99048.01;;;18.79;100.00
42003;BME280;27693;50.506;30.832;2023-07-31T01:05:36;99044.41;;;18.80;100.00
42003;BME280;27693;50.506;30.832;2023-07-31T01:06:47;99048.01;;;18.79;100.00
42003;BME280;27693;50.506;30.832;2023-07-31T01:08:18;99048.56;;;18.83;100.00
42003;BME280;27693;50.506;30.832;2023-07-31T01:09:45;99045.23;;;18.61;100.00
42003;BME280;27693;50.506;30.832;2023-07-31T01:10:59;99052.47;;;18.69;100.00
42003;BME280;27693;50.506;30.832;2023-07-31T01:12:02;99045.79;;;18.75;100.00
42003;BME280;27693;50.506;30.832;2023-07-31T01:13:06;99050.65;;;18.70;100.00
42003;BME280;27693;50.506;30.832;2023-07-31T01:14:09;99045.79;;;18.75;100.00
42003;BME280;27693;50.506;30.832;2023-07-31T01:15:11;99047.45;;;18.76;100.00
42003;BME280;27693;50.506;30.832;2023-07-31T01:16:14;99047.19;;;18.79;100.00
42003;BME280;27693;50.506;30.832;2023-07-31T01:17:16;99050.23;;;18.84;100.00
42003;BME280;27693;50.506;30.832;2023-07-31T01:18:19;99057.17;;;18.85;100.00
42003;BME280;27693;50.506;30.832;2023-07-31T01:19:23;99049.97;;;18.87;100.00
42003;BME280;27693;50.506;30.832;2023-07-31T01:20:29;99054.80;;;18.82;100.00
42003;BME280;27693;50.506;30.832;2023-07-31T01:27:12;99051.06;;;18.75;100.00
42003;BME280;27693;50.506;30.832;2023-07-31T01:28:19;99047.75;;;18.73;100.00
42003;BME280;27693;50.506;30.832;2023-07-31T01:30:25;99056.89;;;18.68;100.00
42003;BME280;27693;50.506;30.832;2023-07-31T01:30:39;99057.44;;;18.62;100.00
42003;BME280;27693;50.506;30.832;2023-07-31T01:31:43;99057.18;;;18.65;100.00
42003;BME280;27693;50.506;30.832;2023-07-31T01:32:48;99060.22;;;18.71;100.00
42003;BME280;27693;50.506;30.832;2023-07-31T01:33:53;99056.63;;;18.52;100.00
42003;BME280;27693;50.506;30.832;2023-07-31T01:34:59;99060.77;;;18.45;100.00
42003;BME280;27693;50.506;30.832;2023-07-31T01:36:02;99060.48;;;18.48;100.00
42003;BME280;27693;50.506;30.832;2023-07-31T01:37:05;99060.21;;;18.41;100.00
42003;BME280;27693;50.506;30.832;2023-07-31T01:38:07;99068.26;;;18.40;100.00
42003;BME280;27693;50.506;30.832;2023-07-31T01:39:09;99074.04;;;18.33;100.00
42003;BME280;27693;50.506;30.832;2023-07-31T01:40:12;99061.88;;;18.32;100.00
42003;BME280;27693;50.506;30.832;2023-07-31T01:41:17;99067.14;;;18.32;100.00
42003;BME280;27693;50.506;30.832;2023-07-31T01:42:20;99064.92;;;18.38;100.00
42003;BME280;27693;50.506;30.832;2023-07-31T01:43:22;99059.66;;;18.38;100.00
42003;BME280;27693;50.506;30.832;2023-07-31T01:44:26;99062.84;;;18.41;100.00
42003;BME280;27693;50.506;30.832;2023-07-31T01:45:28;99060.48;;;18.48;100.00
42003;BME280;27693;50.506;30.832;2023-07-31T01:46:31;99059.11;;;18.44;100.00
42003;BME280;27693;50.506;30.832;2023-07-31T01:47:34;99065.18;;;18.34;100.00
42003;BME280;27693;50.506;30.832;2023-07-31T01:48:36;99064.34;;;18.24;100.00
42003;BME280;27693;50.506;30.832;2023-07-31T01:49:38;99066.69;;;18.27;100.00
42003;BME280;27693;50.506;30.832;2023-07-31T01:50:41;99064.36;;;18.34;100.00
42003;BME280;27693;50.506;30.832;2023-07-31T01:51:43;99064.36;;;18.34;100.00
42003;BME280;27693;50.506;30.832;2023-07-31T01:52:46;99072.11;;;18.35;100.00
42003;BME280;27693;50.506;30.832;2023-07-31T01:53:48;99063.81;;;18.40;100.00
42003;BME280;27693;50.506;30.832;2023-07-31T01:54:51;99069.89;;;18.41;100.00
42003;BME280;27693;50.506;30.832;2023-07-31T01:55:54;99067.27;;;18.50;100.00
42003;BME280;27693;50.506;30.832;2023-07-31T01:56:56;99072.02;;;18.57;100.00
42003;BME280;27693;50.506;30.832;2023-07-31T01:57:58;99075.17;;;18.60;100.00
42003;BME280;27693;50.506;30.832;2023-07-31T01:59:01;99069.91;;;18.60;100.00
42003;BME280;27693;50.506;30.832;2023-07-31T02:00:04;99072.43;;;18.62;100.00
42003;BME280;27693;50.506;30.832;2023-07-31T02:01:09;99075.47;;;18.57;100.00
42003;BME280;27693;50.506;30.832;2023-07-31T02:02:12;99077.39;;;18.45;100.00
42003;BME280;27693;50.506;30.832;2023-07-31T02:03:15;99073.38;;;18.41;100.00
42003;BME280;27693;50.506;30.832;2023-07-31T02:04:18;99070.45;;;18.34;100.00
42003;BME280;27693;50.506;30.832;2023-07-31T02:05:20;99069.89;;;18.41;100.00
42003;BME280;27693;50.506;30.832;2023-07-31T02:06:22;99066.84;;;18.35;100.00
42003;BME280;27693;50.506;30.832;2023-07-31T02:07:26;99070.73;;;18.31;100.00
42003;BME280;27693;50.506;30.832;2023-07-31T02:08:28;99067.54;;;18.28;100.00
42003;BME280;27693;50.506;30.832;2023-07-31T02:09:30;99065.33;;;18.33;100.00
42003;BME280;27693;50.506;30.832;2023-07-31T02:10:34;99062.00;;;18.41;100.00
42003;BME280;27693;50.506;30.832;2023-07-31T02:11:36;99060.08;;;18.52;100.00
42003;BME280;27693;50.506;30.832;2023-07-31T02:12:39;99057.30;;;18.64;100.00
42003;BME280;27693;50.506;30.832;2023-07-31T02:13:41;99066.60;;;18.58;100.00
42003;BME280;27693;50.506;30.832;2023-07-31T02:14:44;99059.92;;;18.54;100.00
42003;BME280;27693;50.506;30.832;2023-07-31T02:15:48;99058.55;;;18.50;100.00
42003;BME280;27693;50.506;30.832;2023-07-31T02:16:50;99061.19;;;18.60;100.00
42003;BME280;27693;50.506;30.832;2023-07-31T02:17:53;99061.48;;;18.66;100.00
42003;BME280;27693;50.506;30.832;2023-07-31T02:18:55;99067.16;;;18.72;100.00
42003;BME280;27693;50.506;30.832;2023-07-31T02:19:58;99062.45;;;18.56;100.00
42003;BME280;27693;50.506;30.832;2023-07-31T02:21:00;99063.56;;;18.53;100.00
42003;BME280;27693;50.506;30.832;2023-07-31T02:22:03;99062.56;;;18.54;100.00
42003;BME280;27693;50.506;30.832;2023-07-31T02:23:06;99062.71;;;18.62;100.00
42003;BME280;27693;50.506;30.832;2023-07-31T02:24:10;99053.84;;;18.63;100.00
42003;BME280;27693;50.506;30.832;2023-07-31T02:25:13;99061.59;;;18.55;100.00
42003;BME280;27693;50.506;30.832;2023-07-31T02:26:15;99057.44;;;18.43;100.00
42003;BME280;27693;50.506;30.832;2023-07-31T02:27:19;99060.48;;;18.48;100.00
42003;BME280;27693;50.506;30.832;2023-07-31T02:28:22;99050.66;;;18.60;100.00
42003;BME280;27693;50.506;30.832;2023-07-31T02:29:25;99058.55;;;18.70;100.00
42003;BME280;27693;50.506;30.832;2023-07-31T02:30:27;99057.03;;;18.67;100.00
42003;BME280;27693;50.506;30.832;2023-07-31T02:31:30;99062.15;;;18.49;100.00
42003;BME280;27693;50.506;30.832;2023-07-31T02:32:32;99063.27;;;18.56;100.00
42003;BME280;27693;50.506;30.832;2023-07-31T02:33:35;99067.42;;;18.49;100.00
42003;BME280;27693;50.506;30.832;2023-07-31T02:34:37;99065.75;;;18.48;100.00
42003;BME280;27693;50.506;30.832;2023-07-31T02:35:40;99066.04;;;18.45;100.00
42003;BME280;27693;50.506;30.832;2023-07-31T02:36:42;99068.52;;;18.36;100.00
42003;BME280;27693;50.506;30.832;2023-07-31T02:37:44;99070.03;;;18.29;100.00
42003;BME280;27693;50.506;30.832;2023-07-31T02:38:47;99071.53;;;18.22;100.00
42003;BME280;27693;50.506;30.832;2023-07-31T02:39:49;99078.14;;;18.07;100.00
42003;BME280;27693;50.506;30.832;2023-07-31T02:40:52;99071.75;;;17.99;100.00
42003;BME280;27693;50.506;30.832;2023-07-31T02:41:55;99071.40;;;17.83;100.00
42003;BME280;27693;50.506;30.832;2023-07-31T02:42:58;99067.81;;;17.84;100.00
42003;BME280;27693;50.506;30.832;2023-07-31T02:44:01;99069.98;;;17.79;100.00
42003;BME280;27693;50.506;30.832;2023-07-31T02:45:05;99069.45;;;17.85;100.00
42003;BME280;27693;50.506;30.832;2023-07-31T02:46:08;99072.25;;;17.93;100.00
42003;BME280;27693;50.506;30.832;2023-07-31T02:47:10;99072.53;;;17.90;100.00
42003;BME280;27693;50.506;30.832;2023-07-31T02:48:12;99065.09;;;17.95;100.00
42003;BME280;27693;50.506;30.832;2023-07-31T02:49:16;99070.39;;;18.05;100.00
42003;BME280;27693;50.506;30.832;2023-07-31T02:50:18;99069.83;;;18.01;100.00
42003;BME280;27693;50.506;30.832;2023-07-31T02:51:20;99069.57;;;18.04;100.00
42003;BME280;27693;50.506;30.832;2023-07-31T02:52:23;99069.68;;;18.03;100.00
42003;BME280;27693;50.506;30.832;2023-07-31T02:53:25;99065.09;;;17.95;100.00
42003;BME280;27693;50.506;30.832;2023-07-31T02:54:28;99061.65;;;17.95;100.00
42003;BME280;27693;50.506;30.832;2023-07-31T02:55:30;99065.60;;;17.89;100.00
42003;BME280;27693;50.506;30.832;2023-07-31T02:56:33;99065.71;;;17.78;100.00
42003;BME280;27693;50.506;30.832;2023-07-31T02:57:35;99063.65;;;17.81;100.00
42003;BME280;27693;50.506;30.832;2023-07-31T02:58:38;99059.77;;;17.85;100.00
42003;BME280;27693;50.506;30.832;2023-07-31T02:59:40;99073.64;;;17.87;100.00
42003;BME280;27693;50.506;30.832;2023-07-31T03:00:45;99071.30;;;17.94;100.00
42003;BME280;27693;50.506;30.832;2023-07-31T03:01:49;99067.27;;;17.90;100.00
42003;BME280;27693;50.506;30.832;2023-07-31T03:02:52;99071.40;;;17.83;100.00
42003;BME280;27693;50.506;30.832;2023-07-31T03:03:54;99071.40;;;17.83;100.00
42003;BME280;27693;50.506;30.832;2023-07-31T03:04:58;99065.60;;;17.89;100.00
42003;BME280;27693;50.506;30.832;2023-07-31T03:06:02;99068.48;;;17.86;100.00
42003;BME280;27693;50.506;30.832;2023-07-31T03:07:05;99071.94;;;17.77;100.00
42003;BME280;27693;50.506;30.832;2023-07-31T03:08:07;99068.77;;;17.83;100.00
42003;BME280;27693;50.506;30.832;2023-07-31T03:09:10;99062.97;;;17.89;100.00
42003;BME280;27693;50.506;30.832;2023-07-31T03:10:12;99070.86;;;17.89;100.00
42003;BME280;27693;50.506;30.832;2023-07-31T03:11:15;99064.64;;;17.90;100.00
42003;BME280;27693;50.506;30.832;2023-07-31T03:12:18;99061.13;;;17.80;100.00
42003;BME280;27693;50.506;30.832;2023-07-31T03:13:21;99059.74;;;17.76;100.00
42003;BME280;27693;50.506;30.832;2023-07-31T03:14:24;99061.41;;;17.77;100.00
42003;BME280;27693;50.506;30.832;2023-07-31T03:15:28;99062.23;;;17.77;100.00
42003;BME280;27693;50.506;30.832;2023-07-31T03:16:31;99061.52;;;17.75;100.00
42003;BME280;27693;50.506;30.832;2023-07-31T03:17:34;99063.08;;;17.78;100.00
42003;BME280;27693;50.506;30.832;2023-07-31T03:18:36;99063.77;;;17.80;100.00
42003;BME280;27693;50.506;30.832;2023-07-31T03:19:39;99062.55;;;17.84;100.00
42003;BME280;27693;50.506;30.832;2023-07-31T03:20:44;99058.42;;;17.91;100.00
42003;BME280;27693;50.506;30.832;2023-07-31T03:21:46;99056.47;;;17.93;100.00
42003;BME280;27693;50.506;30.832;2023-07-31T03:22:49;99061.50;;;17.96;100.00
42003;BME280;27693;50.506;30.832;2023-07-31T03:23:53;99075.62;;;17.95;100.00
42003;BME280;27693;50.506;30.832;2023-07-31T03:24:55;99067.95;;;17.92;100.00
42003;BME280;27693;50.506;30.832;2023-07-31T03:26:00;99065.60;;;17.89;100.00
42003;BME280;27693;50.506;30.832;2023-07-31T03:27:04;99070.47;;;17.94;100.00
42003;BME280;27693;50.506;30.832;2023-07-31T03:28:07;99065.94;;;18.06;100.00
42003;BME280;27693;50.506;30.832;2023-07-31T03:29:09;99065.94;;;18.06;100.00
42003;BME280;27693;50.506;30.832;2023-07-31T03:30:12;99083.16;;;18.10;100.00
42003;BME280;27693;50.506;30.832;2023-07-31T03:31:14;99083.16;;;18.10;100.00
42003;BME280;27693;50.506;30.832;2023-07-31T03:32:17;99074.69;;;18.06;100.00
42003;BME280;27693;50.506;30.832;2023-07-31T03:33:22;99080.77;;;18.07;100.00
42003;BME280;27693;50.506;30.832;2023-07-31T03:34:26;99092.72;;;18.11;100.00
42003;BME280;27693;50.506;30.832;2023-07-31T03:35:28;99088.95;;;18.03;100.00
42003;BME280;27693;50.506;30.832;2023-07-31T03:36:31;99084.91;;;17.99;100.00
42003;BME280;27693;50.506;30.832;2023-07-31T03:37:33;99086.37;;;17.92;100.00
42003;BME280;27693;50.506;30.832;2023-07-31T03:38:36;99081.92;;;17.83;100.00
42003;BME280;27693;50.506;30.832;2023-07-31T03:39:38;99081.95;;;17.93;100.00
42003;BME280;27693;50.506;30.832;2023-07-31T03:40:40;99082.02;;;18.02;100.00
42003;BME280;27693;50.506;30.832;2023-07-31T03:41:43;99081.48;;;18.09;100.00
42003;BME280;27693;50.506;30.832;2023-07-31T03:42:45;99084.28;;;18.17;100.00
42003;BME280;27693;50.506;30.832;2023-07-31T03:43:50;99081.69;;;18.36;100.00
42003;BME280;27693;50.506;30.832;2023-07-31T03:45:06;99077.41;;;18.65;100.00
42003;BME280;27693;50.506;30.832;2023-07-31T03:46:09;99082.27;;;18.60;100.00
42003;BME280;27693;50.506;30.832;2023-07-31T03:47:11;99075.32;;;18.49;100.00
42003;BME280;27693;50.506;30.832;2023-07-31T03:48:16;99075.32;;;18.49;100.00
42003;BME280;27693;50.506;30.832;2023-07-31T03:49:18;99090.98;;;18.60;100.00
42003;BME280;27693;50.506;30.832;2023-07-31T03:50:21;99088.78;;;18.46;100.00
42003;BME280;27693;50.506;30.832;2023-07-31T03:51:28;99100.91;;;18.27;100.00
42003;BME280;27693;50.506;30.832;2023-07-31T03:52:29;99097.61;;;18.25;100.00
42003;BME280;27693;50.506;30.832;2023-07-31T03:53:32;99101.87;;;18.26;100.00
42003;BME280;27693;50.506;30.832;2023-07-31T03:54:34;99101.87;;;18.26;100.00
42003;BME280;27693;50.506;30.832;2023-07-31T03:55:37;99102.00;;;18.15;100.00
42003;BME280;27693;50.506;30.832;2023-07-31T03:56:39;99104.21;;;18.10;100.00
42003;BME280;27693;50.506;30.832;2023-07-31T03:57:42;99105.48;;;18.15;100.00
42003;BME280;27693;50.506;30.832;2023-07-31T03:58:44;99109.08;;;18.14;100.00
42003;BME280;27693;50.506;30.832;2023-07-31T03:59:47;99104.63;;;18.15;100.00
42003;BME280;27693;50.506;30.832;2023-07-31T04:00:49;99102.02;;;18.25;100.00
42003;BME280;27693;50.506;30.832;2023-07-31T04:01:52;99090.97;;;18.41;100.00
42003;BME280;27693;50.506;30.832;2023-07-31T04:02:54;99100.83;;;18.39;100.00
42003;BME280;27693;50.506;30.832;2023-07-31T04:03:56;99092.63;;;18.42;100.00
42003;BME280;27693;50.506;30.832;2023-07-31T04:04:58;99091.51;;;18.34;100.00
42003;BME280;27693;50.506;30.832;2023-07-31T04:06:01;99089.82;;;18.24;100.00
42003;BME280;27693;50.506;30.832;2023-07-31T04:07:03;99090.12;;;18.30;100.00
42003;BME280;27693;50.506;30.832;2023-07-31T04:08:05;99094.55;;;18.30;100.00
42003;BME280;27693;50.506;30.832;2023-07-31T04:09:08;99093.30;;;18.24;100.00
42003;BME280;27693;50.506;30.832;2023-07-31T04:10:11;99081.52;;;18.28;100.00
42003;BME280;27693;50.506;30.832;2023-07-31T04:11:15;99089.84;;;18.33;100.00
42003;BME280;27693;50.506;30.832;2023-07-31T04:12:17;99085.84;;;18.39;100.00
42003;BME280;27693;50.506;30.832;2023-07-31T04:13:22;99087.94;;;18.55;100.00
42003;BME280;27693;50.506;30.832;2023-07-31T04:14:24;99086.57;;;18.71;100.00
42003;BME280;27693;50.506;30.832;2023-07-31T04:15:28;99083.94;;;18.80;100.00
42003;BME280;27693;50.506;30.832;2023-07-31T04:16:30;99083.94;;;18.80;100.00
42003;BME280;27693;50.506;30.832;2023-07-31T04:17:33;99089.94;;;18.92;100.00
42003;BME280;27693;50.506;30.832;2023-07-31T04:18:36;99092.71;;;19.01;100.00
42003;BME280;27693;50.506;30.832;2023-07-31T04:19:38;99087.98;;;19.14;100.00
42003;BME280;27693;50.506;30.832;2023-07-31T04:20:40;99102.69;;;19.07;100.00
42003;BME280;27693;50.506;30.832;2023-07-31T04:21:43;99091.30;;;18.96;100.00
42003;BME280;27693;50.506;30.832;2023-07-31T04:22:46;99091.30;;;18.96;100.00
42003;BME280;27693;50.506;30.832;2023-07-31T04:23:49;99097.69;;;19.04;100.00
42003;BME280;27693;50.506;30.832;2023-07-31T04:24:51;99101.44;;;19.01;100.00
42003;BME280;27693;50.506;30.832;2023-07-31T04:25:54;99091.86;;;19.00;100.00
42003;BME280;27693;50.506;30.832;2023-07-31T04:26:57;99101.28;;;19.03;100.00
42003;BME280;27693;50.506;30.832;2023-07-31T04:27:59;99093.27;;;18.94;100.00
42003;BME280;27693;50.506;30.832;2023-07-31T04:29:01;99100.73;;;18.99;100.00
42003;BME280;27693;50.506;30.832;2023-07-31T04:30:07;99114.05;;;19.07;100.00
42003;BME280;27693;50.506;30.832;2023-07-31T04:31:11;99110.17;;;18.92;100.00
42003;BME280;27693;50.506;30.832;2023-07-31T04:32:14;99110.58;;;18.87;100.00
42003;BME280;27693;50.506;30.832;2023-07-31T04:33:18;99117.63;;;18.67;100.00
42003;BME280;27693;50.506;30.832;2023-07-31T04:34:22;99116.23;;;18.53;100.00
42003;BME280;27693;50.506;30.832;2023-07-31T04:35:24;99119.29;;;18.58;100.00
42003;BME280;27693;50.506;30.832;2023-07-31T04:36:28;99115.95;;;18.56;100.00
42003;BME280;27693;50.506;30.832;2023-07-31T04:37:30;99115.81;;;18.67;100.00
42003;BME280;27693;50.506;30.832;2023-07-31T04:38:33;99120.97;;;18.79;100.00
42003;BME280;27693;50.506;30.832;2023-07-31T04:39:35;99119.30;;;18.78;100.00
42003;BME280;27693;50.506;30.832;2023-07-31T04:40:38;99126.83;;;18.92;100.00
42003;BME280;27693;50.506;30.832;2023-07-31T04:41:40;99128.50;;;18.93;100.00
42003;BME280;27693;50.506;30.832;2023-07-31T04:42:44;99119.86;;;18.81;100.00
42003;BME280;27693;50.506;30.832;2023-07-31T04:43:46;99120.97;;;18.89;100.00
42003;BME280;27693;50.506;30.832;2023-07-31T04:44:49;99128.20;;;18.96;100.00
42003;BME280;27693;50.506;30.832;2023-07-31T04:45:53;99125.87;;;18.93;100.00
42003;BME280;27693;50.506;30.832;2023-07-31T04:46:56;99125.02;;;19.03;100.00
42003;BME280;27693;50.506;30.832;2023-07-31T04:47:58;99116.83;;;19.15;100.00
42003;BME280;27693;50.506;30.832;2023-07-31T04:49:00;99117.63;;;19.26;100.00
42003;BME280;27693;50.506;30.832;2023-07-31T04:50:03;99114.58;;;19.30;100.00
42003;BME280;27693;50.506;30.832;2023-07-31T04:51:07;99114.18;;;19.25;100.00
42003;BME280;27693;50.506;30.832;2023-07-31T04:52:09;99122.09;;;19.25;100.00
42003;BME280;27693;50.506;30.832;2023-07-31T04:53:12;99123.19;;;19.33;100.00
42003;BME280;27693;50.506;30.832;2023-07-31T04:54:14;99121.35;;;19.43;100.00
42003;BME280;27693;50.506;30.832;2023-07-31T04:55:17;99122.88;;;19.55;100.00
42003;BME280;27693;50.506;30.832;2023-07-31T04:56:20;99125.21;;;19.58;100.00
42003;BME280;27693;50.506;30.832;2023-07-31T04:57:22;99132.28;;;19.68;100.00
42003;BME280;27693;50.506;30.832;2023-07-31T04:58:24;99127.85;;;19.58;100.00
42003;BME280;27693;50.506;30.832;2023-07-31T04:59:27;99129.82;;;19.56;100.00
42003;BME280;27693;50.506;30.832;2023-07-31T05:00:29;99128.73;;;19.49;100.00
42003;BME280;27693;50.506;30.832;2023-07-31T05:01:32;99136.78;;;19.38;100.00
42003;BME280;27693;50.506;30.832;2023-07-31T05:02:35;99134.14;;;19.38;100.00
42003;BME280;27693;50.506;30.832;2023-07-31T05:03:37;99140.11;;;19.40;100.00
42003;BME280;27693;50.506;30.832;2023-07-31T05:04:40;99142.03;;;19.47;100.00
42003;BME280;27693;50.506;30.832;2023-07-31T05:05:42;99143.00;;;19.46;100.00
42003;BME280;27693;50.506;30.832;2023-07-31T05:06:45;99138.98;;;19.52;100.00
42003;BME280;27693;50.506;30.832;2023-07-31T05:07:47;99137.59;;;19.58;100.00
42003;BME280;27693;50.506;30.832;2023-07-31T05:08:50;99137.44;;;19.59;100.00
42003;BME280;27693;50.506;30.832;2023-07-31T05:09:52;99142.14;;;19.66;100.00
42003;BME280;27693;50.506;30.832;2023-07-31T05:10:55;99145.63;;;19.66;100.00
42003;BME280;27693;50.506;30.832;2023-07-31T05:11:57;99152.56;;;19.57;100.00
42003;BME280;27693;50.506;30.832;2023-07-31T05:13:00;99143.68;;;19.58;100.00
42003;BME280;27693;50.506;30.832;2023-07-31T05:14:02;99152.59;;;19.47;100.00
42003;BME280;27693;50.506;30.832;2023-07-31T05:15:05;99155.94;;;19.40;100.00
42003;BME280;27693;50.506;30.832;2023-07-31T05:16:09;99153.86;;;19.43;100.00
42003;BME280;27693;50.506;30.832;2023-07-31T05:17:12;99152.34;;;19.41;100.00
42003;BME280;27693;50.506;30.832;2023-07-31T05:18:15;99153.14;;;19.51;100.00
42003;BME280;27693;50.506;30.832;2023-07-31T05:19:17;99162.00;;;19.60;100.00
42003;BME280;27693;50.506;30.832;2023-07-31T05:20:21;99159.48;;;19.68;100.00
42003;BME280;27693;50.506;30.832;2023-07-31T05:21:24;99158.94;;;19.64;100.00
42003;BME280;27693;50.506;30.832;2023-07-31T05:22:26;99156.47;;;19.53;100.00
42003;BME280;27693;50.506;30.832;2023-07-31T05:23:29;99161.18;;;19.59;100.00
42003;BME280;27693;50.506;30.832;2023-07-31T05:24:34;99157.27;;;19.63;100.00
42003;BME280;27693;50.506;30.832;2023-07-31T05:25:37;99158.94;;;19.64;100.00
42003;BME280;27693;50.506;30.832;2023-07-31T05:26:40;99160.61;;;19.66;100.00
42003;BME280;27693;50.506;30.832;2023-07-31T05:27:44;99165.04;;;19.75;100.00
42003;BME280;27693;50.506;30.832;2023-07-31T05:28:48;99163.09;;;19.67;100.00
42003;BME280;27693;50.506;30.832;2023-07-31T05:29:50;99165.34;;;19.62;100.00
42003;BME280;27693;50.506;30.832;2023-07-31T05:30:58;99161.55;;;19.74;100.00
42003;BME280;27693;50.506;30.832;2023-07-31T05:31:59;99159.81;;;19.55;100.00